Time;durP1;ratioP1;P1;durP2;ratioP2;P2;SDS_P1;SDS_P2;PMS_P1;PMS_P2;Temp;Humidity;BMP_temperature;BMP_pressure;BME280_temperature;BME280_humidity;BME280_pressure;Samples;Min_cycle;Max_cycle;Signal;HPM_P1;HPM_P2
2022/12/17 13:06:07;;;;;;;44.95;15.20;;;;;;;;;;5028974;28;20024;-83
2022/12/17 13:08:32;;;;;;;56.50;17.57;;;;;;;;;;5030168;28;20029;-82
2022/12/17 13:11:07;;;;;;;57.37;18.23;;;;;;;;;;5024867;28;20029;-82
2022/12/17 13:13:34;;;;;;;54.30;19.33;;;;;;;;;;5030569;28;20045;-83
2022/12/17 13:16:15;;;;;;;55.40;20.17;;;;;;;;;;5032785;28;20030;-82
2022/12/17 13:18:40;;;;;;;42.53;15.30;;;;;;;;;;5028080;28;20025;-83
2022/12/17 13:21:23;;;;;;;55.17;19.80;;;;;;;;;;5028382;28;20035;-84
2022/12/17 13:23:48;;;;;;;48.20;16.70;;;;;;;;;;5026710;28;20025;-82
2022/12/17 13:26:16;;;;;;;49.50;16.60;;;;;;;;;;5016919;28;20380;-82
2022/12/17 13:28:43;;;;;;;46.37;15.27;;;;;;;;;;5026442;28;20111;-83
2022/12/17 13:31:16;;;;;;;44.80;14.67;;;;;;;;;;5028225;28;20017;-84
2022/12/17 13:34:00;;;;;;;59.93;19.63;;;;;;;;;;5025395;28;20021;-83
2022/12/17 13:36:28;;;;;;;56.80;19.00;;;;;;;;;;5038387;28;20033;-83
2022/12/17 13:38:59;;;;;;;55.77;18.47;;;;;;;;;;5020804;28;20442;-83
2022/12/17 13:41:29;;;;;;;58.80;19.30;;;;;;;;;;5039054;28;20032;-82
2022/12/17 13:43:56;;;;;;;50.47;18.30;;;;;;;;;;5025925;28;20040;-84
2022/12/17 13:46:24;;;;;;;56.43;20.33;;;;;;;;;;5028668;28;20018;-84
2022/12/17 13:48:53;;;;;;;59.57;20.83;;;;;;;;;;5028817;28;20021;-84
2022/12/17 13:51:19;;;;;;;65.50;21.40;;;;;;;;;;5033875;28;20116;-83
2022/12/17 13:53:54;;;;;;;61.00;19.70;;;;;;;;;;5027935;28;20314;-82
2022/12/17 13:56:24;;;;;;;55.27;18.97;;;;;;;;;;5015938;28;20056;-84
2022/12/17 13:58:50;;;;;;;53.43;18.00;;;;;;;;;;5029954;28;20013;-84
2022/12/17 14:01:15;;;;;;;54.23;18.47;;;;;;;;;;5029530;28;20537;-83
2022/12/17 14:03:57;;;;;;;56.67;19.97;;;;;;;;;;5029437;28;20165;-84
2022/12/17 14:06:23;;;;;;;59.27;19.73;;;;;;;;;;5037936;28;20091;-84
2022/12/17 14:08:49;;;;;;;65.30;20.70;;;;;;;;;;5027887;28;20270;-83
2022/12/17 14:13:59;;;;;;;71.20;23.67;;;;;;;;;;5028726;28;20087;-83
2022/12/17 14:16:24;;;;;;;62.60;20.40;;;;;;;;;;5026508;28;20473;-83
2022/12/17 14:18:51;;;;;;;60.47;20.90;;;;;;;;;;5032212;28;20021;-84
2022/12/17 14:21:16;;;;;;;65.40;22.10;;;;;;;;;;5048044;28;20021;-83
2022/12/17 14:23:42;;;;;;;68.67;23.47;;;;;;;;;;5032799;28;20377;-84
2022/12/17 14:26:11;;;;;;;69.07;20.80;;;;;;;;;;5032304;28;20108;-84
2022/12/17 14:28:45;;;;;;;63.87;17.57;;;;;;;;;;5032438;28;20385;-84
2022/12/17 14:31:13;;;;;;;59.70;19.13;;;;;;;;;;5044366;28;20088;-84
2022/12/17 14:33:38;;;;;;;61.97;20.80;;;;;;;;;;5034266;28;20024;-86
2022/12/17 14:36:05;;;;;;;55.07;18.67;;;;;;;;;;5033196;28;20025;-86
2022/12/17 14:38:30;;;;;;;49.17;16.40;;;;;;;;;;5031935;28;20079;-86
2022/12/17 14:41:00;;;;;;;65.27;21.93;;;;;;;;;;5032123;28;20465;-86
2022/12/17 14:43:27;;;;;;;58.73;20.10;;;;;;;;;;5033113;28;20079;-86
2022/12/17 14:51:27;;;;;;;54.67;20.30;;;;;;;;;;5031600;28;20504;-86
2022/12/17 14:54:03;;;;;;;51.17;18.93;;;;;;;;;;5039222;28;20021;-85
2022/12/17 14:56:28;;;;;;;48.93;16.63;;;;;;;;;;5030270;28;20024;-86
2022/12/17 14:58:53;;;;;;;47.83;14.77;;;;;;;;;;5033289;28;20478;-86
2022/12/17 15:01:18;;;;;;;45.90;17.10;;;;;;;;;;5030545;28;20027;-86
2022/12/17 15:03:47;;;;;;;47.13;18.13;;;;;;;;;;5032758;28;20022;-85
2022/12/17 15:06:15;;;;;;;58.57;19.57;;;;;;;;;;5027516;28;20095;-85
2022/12/17 15:08:41;;;;;;;52.67;19.07;;;;;;;;;;5020309;28;20499;-85
2022/12/17 15:11:09;;;;;;;55.47;20.73;;;;;;;;;;5032347;28;20441;-85
2022/12/17 15:13:34;;;;;;;54.13;19.67;;;;;;;;;;5032539;28;20017;-85
2022/12/17 15:15:59;;;;;;;60.27;20.43;;;;;;;;;;5032052;28;20040;-85
2022/12/17 15:18:24;;;;;;;52.90;17.50;;;;;;;;;;5033571;28;20044;-85
2022/12/17 15:20:50;;;;;;;56.87;20.13;;;;;;;;;;5032548;28;20175;-85
2022/12/17 15:23:16;;;;;;;57.73;20.20;;;;;;;;;;5032394;28;20032;-85
2022/12/17 15:25:41;;;;;;;56.80;19.27;;;;;;;;;;5032019;28;20592;-85
2022/12/17 15:28:07;;;;;;;60.23;20.30;;;;;;;;;;5025353;28;20128;-85
2022/12/17 15:30:33;;;;;;;55.87;17.63;;;;;;;;;;5031922;28;20096;-85
2022/12/17 15:32:58;;;;;;;58.40;19.77;;;;;;;;;;5032041;28;20021;-85
2022/12/17 15:35:23;;;;;;;55.20;18.70;;;;;;;;;;5031717;28;20013;-85
2022/12/17 15:37:48;;;;;;;62.57;19.87;;;;;;;;;;5032367;28;20029;-85
2022/12/17 15:40:13;;;;;;;57.93;19.30;;;;;;;;;;5032281;28;20025;-85
2022/12/17 15:45:22;;;;;;;59.40;19.73;;;;;;;;;;5032436;28;20116;-84
2022/12/17 15:47:48;;;;;;;58.13;20.23;;;;;;;;;;5031954;28;20422;-85
2022/12/17 15:50:13;;;;;;;62.47;19.03;;;;;;;;;;5031600;28;20072;-85
2022/12/17 15:52:38;;;;;;;53.17;17.83;;;;;;;;;;5032890;28;20461;-85
2022/12/17 15:55:04;;;;;;;51.03;17.57;;;;;;;;;;5027002;28;20076;-85
2022/12/17 15:57:29;;;;;;;44.70;14.20;;;;;;;;;;5023364;28;20029;-85
2022/12/17 15:59:54;;;;;;;40.10;14.80;;;;;;;;;;5031498;28;20016;-85
2022/12/17 16:02:19;;;;;;;54.07;17.23;;;;;;;;;;5031454;28;20017;-85
2022/12/17 16:04:44;;;;;;;55.57;17.53;;;;;;;;;;5031535;28;20473;-85
2022/12/17 16:07:10;;;;;;;50.27;16.97;;;;;;;;;;5031398;28;20370;-85
2022/12/17 16:09:35;;;;;;;46.97;15.43;;;;;;;;;;5030891;28;20108;-85
2022/12/17 16:12:00;;;;;;;57.37;16.90;;;;;;;;;;5031333;28;20036;-85
2022/12/17 16:14:25;;;;;;;52.50;18.23;;;;;;;;;;5031492;28;20029;-85
2022/12/17 16:16:50;;;;;;;54.37;17.87;;;;;;;;;;5031113;28;20009;-84
2022/12/17 16:19:16;;;;;;;53.83;16.83;;;;;;;;;;5031559;28;20492;-85
2022/12/17 16:21:41;;;;;;;56.90;17.77;;;;;;;;;;5030628;28;20021;-85
2022/12/17 16:24:07;;;;;;;57.13;18.00;;;;;;;;;;5031400;28;20229;-85
2022/12/17 16:26:32;;;;;;;64.57;19.80;;;;;;;;;;5031288;28;20035;-85
2022/12/17 16:28:57;;;;;;;63.10;19.43;;;;;;;;;;5031144;28;20021;-85
2022/12/17 16:31:23;;;;;;;71.37;20.43;;;;;;;;;;5024609;28;20021;-85
2022/12/17 16:33:48;;;;;;;69.00;20.93;;;;;;;;;;5031240;28;20045;-85
2022/12/17 16:36:14;;;;;;;62.70;18.17;;;;;;;;;;5031190;28;20440;-86
2022/12/17 16:38:47;;;;;;;66.07;20.10;;;;;;;;;;5031064;28;20025;-85
2022/12/17 16:41:12;;;;;;;66.37;20.17;;;;;;;;;;5031139;28;20017;-85
2022/12/17 16:43:38;;;;;;;64.53;20.03;;;;;;;;;;5031335;28;20048;-86
2022/12/17 16:46:03;;;;;;;66.37;21.17;;;;;;;;;;5023248;28;20048;-85
2022/12/17 16:48:34;;;;;;;69.53;21.03;;;;;;;;;;5030891;28;20017;-86
2022/12/17 16:50:59;;;;;;;64.17;19.77;;;;;;;;;;5030855;28;20017;-86
2022/12/17 16:53:25;;;;;;;68.87;22.07;;;;;;;;;;5030310;28;20386;-85
2022/12/17 16:55:50;;;;;;;70.23;21.83;;;;;;;;;;5030821;28;20009;-86
2022/12/17 16:58:16;;;;;;;66.20;20.83;;;;;;;;;;5030804;28;20029;-85
2022/12/17 17:00:41;;;;;;;63.70;20.53;;;;;;;;;;5030902;28;20599;-85
2022/12/17 17:03:07;;;;;;;68.47;20.50;;;;;;;;;;5030823;28;20017;-86
2022/12/17 17:05:32;;;;;;;71.27;21.33;;;;;;;;;;5020757;28;20123;-85
2022/12/17 17:07:58;;;;;;;65.27;20.47;;;;;;;;;;5030627;28;20029;-85
2022/12/17 17:10:23;;;;;;;74.07;21.40;;;;;;;;;;5030730;28;20083;-86
2022/12/17 17:12:50;;;;;;;68.47;21.27;;;;;;;;;;5030566;28;20412;-85
2022/12/17 17:15:15;;;;;;;70.20;20.77;;;;;;;;;;5031175;28;20025;-85
2022/12/17 17:17:40;;;;;;;64.40;20.03;;;;;;;;;;5030574;28;20021;-85
2022/12/17 17:20:06;;;;;;;60.70;18.67;;;;;;;;;;5030476;28;20041;-85
2022/12/17 17:22:31;;;;;;;69.63;21.37;;;;;;;;;;5023955;28;20022;-86
2022/12/17 17:24:56;;;;;;;64.37;19.63;;;;;;;;;;5040592;28;20038;-85
2022/12/17 17:27:21;;;;;;;68.27;21.17;;;;;;;;;;5031563;28;20029;-85
2022/12/17 17:29:46;;;;;;;60.77;21.10;;;;;;;;;;5031945;28;20135;-86
2022/12/17 17:32:12;;;;;;;63.73;19.83;;;;;;;;;;5030487;28;20112;-86
2022/12/17 17:34:37;;;;;;;73.63;23.30;;;;;;;;;;5030087;28;20025;-85
2022/12/17 17:37:03;;;;;;;70.03;21.13;;;;;;;;;;5030044;28;20028;-85
2022/12/17 17:39:31;;;;;;;72.57;21.90;;;;;;;;;;5030546;28;20024;-86
2022/12/17 17:41:57;;;;;;;69.80;20.77;;;;;;;;;;5030408;28;20045;-85
2022/12/17 17:44:22;;;;;;;64.93;22.53;;;;;;;;;;5030159;28;20122;-85
2022/12/17 17:46:47;;;;;;;60.57;18.73;;;;;;;;;;5029542;28;20036;-85
2022/12/17 17:49:12;;;;;;;65.87;21.30;;;;;;;;;;5030132;28;20481;-86
2022/12/17 17:51:40;;;;;;;62.57;19.83;;;;;;;;;;5030095;28;20048;-85
2022/12/17 17:54:06;;;;;;;67.57;20.30;;;;;;;;;;5033538;28;20548;-85
2022/12/17 17:56:32;;;;;;;69.43;21.73;;;;;;;;;;5021598;28;20037;-85
2022/12/17 17:58:59;;;;;;;76.47;24.87;;;;;;;;;;5033928;28;20636;-85
2022/12/17 18:01:25;;;;;;;74.27;22.27;;;;;;;;;;5035453;28;20021;-86
2022/12/17 18:03:51;;;;;;;64.67;20.83;;;;;;;;;;5034211;28;20018;-86
2022/12/17 18:06:17;;;;;;;68.53;22.97;;;;;;;;;;5035010;28;20012;-86
2022/12/17 18:08:43;;;;;;;66.77;23.50;;;;;;;;;;5034027;28;20377;-85
2022/12/17 18:11:09;;;;;;;79.30;23.27;;;;;;;;;;5034323;28;20025;-85
2022/12/17 18:16:19;;;;;;;93.77;26.90;;;;;;;;;;5035201;28;20028;-85
2022/12/17 18:18:44;;;;;;;88.53;27.57;;;;;;;;;;5033957;28;20113;-85
2022/12/17 18:21:14;;;;;;;76.13;23.87;;;;;;;;;;5033872;28;20029;-85
2022/12/17 18:23:39;;;;;;;64.17;22.07;;;;;;;;;;5044023;28;20028;-85
2022/12/17 18:26:05;;;;;;;66.23;21.17;;;;;;;;;;5033699;28;20025;-86
2022/12/17 18:28:30;;;;;;;77.77;22.53;;;;;;;;;;5035033;28;20041;-86
2022/12/17 18:30:56;;;;;;;81.30;26.27;;;;;;;;;;5035030;28;20021;-85
2022/12/17 18:33:21;;;;;;;73.57;24.53;;;;;;;;;;5033516;28;20499;-86
2022/12/17 18:35:46;;;;;;;66.97;22.50;;;;;;;;;;5029026;28;20071;-85
2022/12/17 18:38:11;;;;;;;73.80;22.10;;;;;;;;;;5033611;28;20104;-85
2022/12/17 18:40:36;;;;;;;76.13;24.30;;;;;;;;;;5033471;28;20049;-85
2022/12/17 18:45:45;;;;;;;71.57;24.80;;;;;;;;;;5034697;28;20036;-86
2022/12/17 18:48:11;;;;;;;88.27;26.13;;;;;;;;;;5034944;28;20026;-85
2022/12/17 18:50:36;;;;;;;71.90;24.23;;;;;;;;;;5033337;28;20417;-85
2022/12/17 18:53:01;;;;;;;76.93;24.00;;;;;;;;;;5032755;28;20083;-85
2022/12/17 18:55:26;;;;;;;77.17;26.07;;;;;;;;;;5030669;28;20017;-85
2022/12/17 18:57:52;;;;;;;82.07;26.27;;;;;;;;;;5042354;28;20076;-86
2022/12/17 19:00:17;;;;;;;93.40;26.27;;;;;;;;;;5032481;28;20064;-86
2022/12/17 19:02:43;;;;;;;78.30;24.63;;;;;;;;;;5029178;28;20476;-85
2022/12/17 19:05:08;;;;;;;90.80;26.93;;;;;;;;;;5030025;28;20092;-86
2022/12/17 19:07:33;;;;;;;78.27;25.60;;;;;;;;;;5023777;28;20021;-86
2022/12/17 19:09:58;;;;;;;82.13;24.87;;;;;;;;;;5026819;28;20432;-87
2022/12/17 19:12:23;;;;;;;78.40;23.07;;;;;;;;;;5027173;28;20503;-86
2022/12/17 19:14:49;;;;;;;81.23;25.07;;;;;;;;;;5031356;28;20034;-86
2022/12/17 19:17:14;;;;;;;84.40;26.20;;;;;;;;;;5030239;28;20018;-85
2022/12/17 19:19:39;;;;;;;82.23;25.07;;;;;;;;;;5031853;28;20418;-86
2022/12/17 19:22:04;;;;;;;79.87;24.43;;;;;;;;;;5032152;28;20021;-86
2022/12/17 19:24:30;;;;;;;82.67;23.83;;;;;;;;;;5032215;28;20025;-86
2022/12/17 19:26:55;;;;;;;87.93;27.00;;;;;;;;;;5031273;28;20032;-85
2022/12/17 19:29:20;;;;;;;84.77;24.67;;;;;;;;;;5032377;28;20040;-84
2022/12/17 19:31:46;;;;;;;76.40;23.73;;;;;;;;;;5027340;28;20333;-84
2022/12/17 19:34:12;;;;;;;73.47;24.43;;;;;;;;;;5029109;28;20025;-85
2022/12/17 19:36:38;;;;;;;86.57;26.23;;;;;;;;;;5031380;28;20082;-86
2022/12/17 19:39:05;;;;;;;76.23;25.40;;;;;;;;;;5028925;28;20018;-85
2022/12/17 19:41:33;;;;;;;95.00;26.23;;;;;;;;;;5030841;28;20018;-85
2022/12/17 19:44:03;;;;;;;83.10;26.97;;;;;;;;;;5032233;28;20362;-87
2022/12/17 19:46:29;;;;;;;82.93;26.90;;;;;;;;;;5023455;28;20033;-87
2022/12/17 19:48:55;;;;;;;85.17;27.00;;;;;;;;;;5035356;28;20151;-87
2022/12/17 19:51:21;;;;;;;90.63;26.90;;;;;;;;;;5020863;28;20021;-87
2022/12/17 19:53:46;;;;;;;90.23;30.60;;;;;;;;;;5030242;28;20389;-85
2022/12/17 19:56:15;;;;;;;79.63;27.33;;;;;;;;;;5045907;28;20017;-85
2022/12/17 19:58:40;;;;;;;92.23;28.37;;;;;;;;;;5039043;28;20032;-84
2022/12/17 20:01:10;;;;;;;84.10;27.00;;;;;;;;;;5030929;28;20021;-85
2022/12/17 20:03:36;;;;;;;90.27;28.73;;;;;;;;;;5049845;28;20120;-86
2022/12/17 20:06:01;;;;;;;92.43;29.77;;;;;;;;;;5025959;28;20117;-85
2022/12/17 20:08:26;;;;;;;97.73;27.97;;;;;;;;;;5025748;28;20531;-86
2022/12/17 20:10:51;;;;;;;82.97;26.53;;;;;;;;;;5040469;28;20454;-85
2022/12/17 20:13:16;;;;;;;84.73;26.23;;;;;;;;;;5029653;28;20505;-85
2022/12/17 20:15:42;;;;;;;83.87;25.57;;;;;;;;;;5033244;28;20067;-86
2022/12/17 20:18:07;;;;;;;84.00;25.50;;;;;;;;;;5032656;28;20029;-86
2022/12/17 20:20:32;;;;;;;83.33;25.23;;;;;;;;;;5031020;28;20370;-87
2022/12/17 20:22:57;;;;;;;86.47;28.70;;;;;;;;;;5031559;28;20032;-86
2022/12/17 20:25:22;;;;;;;74.43;23.73;;;;;;;;;;5031114;28;20422;-87
2022/12/17 20:27:48;;;;;;;85.17;25.13;;;;;;;;;;5038371;28;20026;-88
2022/12/17 20:30:13;;;;;;;77.17;25.20;;;;;;;;;;5030918;28;20372;-86
2022/12/17 20:32:38;;;;;;;84.47;24.80;;;;;;;;;;5030514;28;20075;-84
2022/12/17 20:35:04;;;;;;;78.03;25.23;;;;;;;;;;5031378;28;20053;-86
2022/12/17 20:37:29;;;;;;;88.60;27.53;;;;;;;;;;5040644;28;20018;-86
2022/12/17 20:39:54;;;;;;;80.30;26.47;;;;;;;;;;5030782;28;20021;-86
2022/12/17 20:42:19;;;;;;;84.53;25.90;;;;;;;;;;5031036;28;20025;-86
2022/12/17 20:44:45;;;;;;;82.87;27.27;;;;;;;;;;5031076;28;20113;-85
2022/12/17 20:47:10;;;;;;;85.60;30.70;;;;;;;;;;5029395;28;20029;-85
2022/12/17 20:49:35;;;;;;;96.27;33.20;;;;;;;;;;5030087;28;20021;-86
2022/12/17 20:52:01;;;;;;;102.03;32.67;;;;;;;;;;5030132;28;20540;-85
2022/12/17 20:54:26;;;;;;;93.90;31.60;;;;;;;;;;5028986;28;20021;-85
2022/12/17 20:56:51;;;;;;;83.30;30.10;;;;;;;;;;5027064;28;20013;-85
2022/12/17 20:59:17;;;;;;;89.13;30.00;;;;;;;;;;5029169;28;20013;-85
2022/12/17 21:01:42;;;;;;;88.70;30.10;;;;;;;;;;5046634;28;20139;-86
2022/12/17 21:04:10;;;;;;;98.43;31.33;;;;;;;;;;5030780;28;20056;-85
2022/12/17 21:06:37;;;;;;;99.07;31.00;;;;;;;;;;5029834;28;20098;-85
2022/12/17 21:09:03;;;;;;;83.13;29.53;;;;;;;;;;5030566;28;20030;-85
2022/12/17 21:11:29;;;;;;;87.50;28.97;;;;;;;;;;5029866;28;20503;-85
2022/12/17 21:13:55;;;;;;;93.40;28.70;;;;;;;;;;5029760;28;20025;-84
2022/12/17 21:16:22;;;;;;;107.97;35.33;;;;;;;;;;5046796;28;20032;-86
2022/12/17 21:18:47;;;;;;;113.47;35.43;;;;;;;;;;5030424;28;20029;-85
2022/12/17 21:21:15;;;;;;;108.57;35.87;;;;;;;;;;5035138;28;20106;-85
2022/12/17 21:23:41;;;;;;;108.77;34.47;;;;;;;;;;5030286;28;20025;-85
2022/12/17 21:26:13;;;;;;;101.23;32.20;;;;;;;;;;5026821;28;20107;-85
2022/12/17 21:28:40;;;;;;;102.40;32.50;;;;;;;;;;5047893;28;20033;-85
2022/12/17 21:31:13;;;;;;;94.57;33.37;;;;;;;;;;5034348;28;20033;-85
2022/12/17 21:33:38;;;;;;;108.82;34.13;;;;;;;;;;5032660;28;20060;-85
2022/12/17 21:36:04;;;;;;;110.90;35.00;;;;;;;;;;5029426;28;20057;-87
2022/12/17 21:38:30;;;;;;;106.57;33.90;;;;;;;;;;5033216;28;20072;-85
2022/12/17 21:40:56;;;;;;;102.73;33.10;;;;;;;;;;5032369;28;20018;-85
2022/12/17 21:43:21;;;;;;;97.17;32.03;;;;;;;;;;5032564;28;20017;-85
2022/12/17 21:45:47;;;;;;;94.47;32.37;;;;;;;;;;5029376;28;20043;-86
2022/12/17 21:48:12;;;;;;;98.60;32.60;;;;;;;;;;5034506;28;20107;-86
2022/12/17 21:50:41;;;;;;;107.90;32.47;;;;;;;;;;5034620;28;20052;-86
2022/12/17 21:53:07;;;;;;;100.80;33.37;;;;;;;;;;5034434;28;20024;-86
2022/12/17 21:55:32;;;;;;;102.90;32.43;;;;;;;;;;5023925;28;20018;-86
2022/12/17 21:57:57;;;;;;;101.93;33.63;;;;;;;;;;5047146;28;20030;-86
2022/12/17 22:00:23;;;;;;;108.60;34.53;;;;;;;;;;5034456;28;20021;-86
2022/12/17 22:02:48;;;;;;;94.77;31.57;;;;;;;;;;5034243;28;20088;-86
2022/12/17 22:05:13;;;;;;;94.67;29.00;;;;;;;;;;5034517;28;20020;-86
2022/12/17 22:07:38;;;;;;;92.07;29.13;;;;;;;;;;5029992;28;20029;-85
2022/12/17 22:10:04;;;;;;;103.80;30.77;;;;;;;;;;5019085;28;20038;-86
2022/12/17 22:15:13;;;;;;;101.87;32.10;;;;;;;;;;5035177;28;20024;-85
2022/12/17 22:17:38;;;;;;;100.00;31.10;;;;;;;;;;5035479;28;20022;-86
2022/12/17 22:20:04;;;;;;;88.00;29.43;;;;;;;;;;5033581;28;20022;-87
2022/12/17 22:22:29;;;;;;;95.47;29.60;;;;;;;;;;5034074;28;20021;-86
2022/12/17 22:24:54;;;;;;;99.37;30.43;;;;;;;;;;5034159;28;20032;-86
2022/12/17 22:27:19;;;;;;;98.10;29.53;;;;;;;;;;5033755;28;20396;-85
2022/12/17 22:35:13;;;;;;;100.87;30.63;;;;;;;;;;5035214;28;20067;-85
2022/12/17 22:37:38;;;;;;;99.00;31.57;;;;;;;;;;5033318;28;20021;-86
2022/12/17 22:40:03;;;;;;;90.23;30.70;;;;;;;;;;5034405;28;20013;-86
2022/12/17 22:45:12;;;;;;;102.30;31.53;;;;;;;;;;5035067;28;20487;-86
2022/12/17 22:47:37;;;;;;;119.90;35.53;;;;;;;;;;5034684;28;20021;-85
2022/12/17 22:50:03;;;;;;;132.50;39.27;;;;;;;;;;5030639;28;20025;-85
2022/12/17 22:52:28;;;;;;;128.67;38.90;;;;;;;;;;5046427;28;20021;-85
2022/12/17 22:54:53;;;;;;;121.87;37.87;;;;;;;;;;5030150;28;20025;-85
2022/12/17 22:57:18;;;;;;;123.27;38.53;;;;;;;;;;5033008;28;20028;-85
2022/12/17 22:59:44;;;;;;;120.03;36.77;;;;;;;;;;5033288;28;20014;-85
2022/12/17 23:02:10;;;;;;;117.47;36.20;;;;;;;;;;5033292;28;20108;-85
2022/12/17 23:04:35;;;;;;;117.50;34.83;;;;;;;;;;5033083;28;20032;-84
2022/12/17 23:07:00;;;;;;;107.93;35.10;;;;;;;;;;5031652;28;20484;-85
2022/12/17 23:09:25;;;;;;;99.60;30.73;;;;;;;;;;5034513;28;20018;-86
2022/12/17 23:11:50;;;;;;;99.40;30.37;;;;;;;;;;5033025;28;20033;-85
2022/12/17 23:14:16;;;;;;;83.97;27.90;;;;;;;;;;5033169;28;20432;-85
2022/12/17 23:16:41;;;;;;;92.97;29.97;;;;;;;;;;5034571;28;20468;-86
2022/12/17 23:19:07;;;;;;;97.07;30.40;;;;;;;;;;5033007;28;20489;-85
2022/12/17 23:21:33;;;;;;;92.27;29.97;;;;;;;;;;5033464;28;20013;-86
2022/12/17 23:23:58;;;;;;;89.50;29.00;;;;;;;;;;5032983;28;20067;-85
2022/12/17 23:26:28;;;;;;;91.07;28.80;;;;;;;;;;5034373;28;20063;-86
2022/12/17 23:28:57;;;;;;;89.20;29.57;;;;;;;;;;5033073;28;20028;-86
2022/12/17 23:31:23;;;;;;;96.93;31.50;;;;;;;;;;5032231;28;20477;-86
2022/12/17 23:33:48;;;;;;;98.63;30.00;;;;;;;;;;5032958;28;20047;-86
2022/12/17 23:36:15;;;;;;;90.63;29.37;;;;;;;;;;5032579;28;20405;-86
2022/12/17 23:38:40;;;;;;;93.77;29.47;;;;;;;;;;5032637;28;20032;-86
2022/12/17 23:41:07;;;;;;;84.60;28.07;;;;;;;;;;5032587;28;20017;-86
2022/12/17 23:43:32;;;;;;;88.73;28.10;;;;;;;;;;5024544;28;20052;-86
2022/12/17 23:45:58;;;;;;;81.77;28.73;;;;;;;;;;5016871;28;20042;-86
2022/12/17 23:48:23;;;;;;;89.17;30.80;;;;;;;;;;5030803;28;20056;-86
2022/12/17 23:50:48;;;;;;;96.27;31.90;;;;;;;;;;5031900;28;20025;-86
2022/12/17 23:53:13;;;;;;;89.20;29.27;;;;;;;;;;5032221;28;20108;-85
2022/12/17 23:55:39;;;;;;;86.00;28.77;;;;;;;;;;5021745;28;20110;-86
2022/12/17 23:58:04;;;;;;;77.60;27.17;;;;;;;;;;5028508;28;20465;-86
